Waskaganish Airport
CYKQ : now visible

Airfield :











YOU CAN JOIN US ON...

 
LOGIN :

Register | Disclaimer

   EN    FR    IT 

 









Legend :    VFR   Marginal VFR   IFR   Intensive IFR   Very Intensive IFR
Visi :
Ceiling :
>= 8 km
>= 3000ft
5 to 8 km
1000 to 3000 ft
1500m to 5 km
500 to 1000 ft
800 to 1500m
200 to 500 ft
< 800m
< 200 ft
Symbols :   Thunderstorms  Fog  Heavy snow  Heavy precipitations  Wind > 20 kt






- Airport Elevation : 80 ft
- IATA code : YKQ


CYKQ - Waskaganish

CURRENT METAR :
  • 082100Z 05003KT 15SM FEW020 FEW070 FEW084 SCT110 M20/M23 A3006 RMK SC1AC1AS2AC1 SC TR AC TR AC TR SLP185

EXPIRED METARs :
  • 082000Z 07004KT 030V100 15SM FEW020 SCT100 BKN250 M19/M23 A3004 RMK SC1AS4CC2 SC TR SLP179
  • 081900Z 08003KT 020V100 15SM FEW080 BKN100 BKN250 M19/M23 A3005 RMK AC1AS6CS1 AC TR SLP180

TAF TAF CYKQ
Valid from the 08 at 16:00 until the 08 at 22:00 UTC


081540Z 0816/0822 VRB03KT 6SM -SN BKN040 OVC200
TEMPO 0816/0822 1 1/2SM -SN BKN015 OVC040 RMK NXT FCST BY 091600Z
CZUL FIR / North America



MET'MAP, your aeronautical weather chart ! - Copyright ORBIFLY December 2007 - Disclaimer

ORBIFLY MET'MAP TEAM :

Programming & Development : Alexandra Zaïnal
Concept & original design : Baudouin d'Aumeries
Assistance for programming : Marc-Olivier Méhu
Technical & hardware support : Manuel Goepfert

Contact : metmap@orbifly.com




SOURCES & CREDITS :

   NOAA       Earth
Advisory